createdAt,value
2022-12-23T00:02:25.842Z,100365.97
2022-12-23T00:05:34.166Z,100351.91
2022-12-23T00:08:40.561Z,100344.38
2022-12-23T00:12:02.931Z,100354.78
2022-12-23T00:15:05.899Z,100361.56
2022-12-23T00:18:08.345Z,100348.81
2022-12-23T00:21:15.616Z,100354.75
2022-12-23T00:24:18.025Z,100346.16
2022-12-23T00:27:20.524Z,100360.44
2022-12-23T00:30:23.782Z,100352.09
2022-12-23T00:33:30.267Z,100339.81
2022-12-23T00:36:32.745Z,100341.13
2022-12-23T00:39:55.051Z,100342.97
2022-12-23T00:42:58.601Z,100338.81
2022-12-23T00:46:01.063Z,100302.00
2022-12-23T00:49:22.329Z,100327.56
2022-12-23T00:52:24.721Z,100314.53
2022-12-23T00:55:27.204Z,100345.03
2022-12-23T00:58:31.926Z,100330.66
2022-12-23T01:01:53.488Z,100339.25
2022-12-23T01:05:14.417Z,100342.66
2022-12-23T01:08:16.855Z,100330.94
2022-12-23T01:11:19.286Z,100336.44
2022-12-23T01:14:22.415Z,100346.75
2022-12-23T01:17:25.035Z,100344.16
2022-12-23T01:20:29.498Z,100327.22
2022-12-23T01:23:32.591Z,100323.28
2022-12-23T01:26:35.259Z,100336.06
2022-12-23T01:29:37.863Z,100336.59
2022-12-23T01:32:40.413Z,100329.84
2022-12-23T01:35:42.943Z,100326.19
2022-12-23T01:38:45.685Z,100296.75
2022-12-23T01:42:06.610Z,100279.22
2022-12-23T01:45:28.148Z,100289.13
2022-12-23T01:48:30.682Z,100268.00
2022-12-23T01:51:33.366Z,100297.81
2022-12-23T01:54:36.774Z,100317.88
2022-12-23T01:57:41.298Z,100319.03
2022-12-23T02:01:04.583Z,100335.97
2022-12-23T02:04:15.633Z,100323.91
2022-12-23T02:07:36.905Z,100319.91
2022-12-23T02:11:17.754Z,100323.25
2022-12-23T02:15:09.618Z,100330.38
2022-12-23T02:18:12.050Z,100342.38
2022-12-23T02:21:31.858Z,100332.91
2022-12-23T02:25:02.276Z,100331.84
2022-12-23T02:28:27.188Z,100318.50
2022-12-23T02:31:34.925Z,100323.19
2022-12-23T02:34:56.023Z,100326.13
2022-12-23T02:38:10.558Z,100306.53
2022-12-23T02:41:23.129Z,100315.19
2022-12-23T02:44:52.806Z,100326.38
2022-12-23T02:48:03.152Z,100317.19
2022-12-23T02:51:06.818Z,100299.66
2022-12-23T02:54:11.793Z,100306.72
2022-12-23T02:57:17.258Z,100301.47
2022-12-23T03:00:20.218Z,100297.53
2022-12-23T03:03:23.131Z,100253.75
2022-12-23T03:06:38.624Z,100280.00
2022-12-23T03:09:51.777Z,100271.66
2022-12-23T03:13:45.028Z,100293.31
2022-12-23T03:17:28.691Z,100297.50
2022-12-23T03:20:44.616Z,100306.97
2022-12-23T03:23:55.941Z,100297.03
2022-12-23T03:27:08.060Z,100301.19
2022-12-23T03:30:13.904Z,100293.19
2022-12-23T03:33:26.199Z,100293.63
2022-12-23T03:36:33.013Z,100255.50
2022-12-23T03:39:40.914Z,100263.03
2022-12-23T03:42:45.277Z,100293.63
2022-12-23T03:45:58.055Z,100291.31
2022-12-23T03:49:05.456Z,100290.03
2022-12-23T03:52:18.856Z,100303.94
2022-12-23T03:55:32.057Z,100289.50
2022-12-23T03:58:57.881Z,100289.72
2022-12-23T04:02:06.748Z,100282.16
2022-12-23T04:05:28.383Z,100299.38
2022-12-23T04:08:33.861Z,100298.78
2022-12-23T04:11:36.764Z,100281.94
2022-12-23T04:14:46.170Z,100301.59
2022-12-23T04:17:49.802Z,100301.13
2022-12-23T04:20:58.381Z,100289.81
2022-12-23T04:24:00.874Z,100301.00
2022-12-23T04:27:03.329Z,100283.44
2022-12-23T04:30:07.593Z,100284.25
2022-12-23T04:33:13.218Z,100266.81
2022-12-23T04:36:15.716Z,100276.59
2022-12-23T04:39:18.195Z,100277.34
2022-12-23T04:42:20.639Z,100263.59
2022-12-23T04:45:23.159Z,100275.00
2022-12-23T04:48:25.665Z,100236.78
2022-12-23T04:51:28.139Z,100266.44
2022-12-23T04:54:30.580Z,100262.22
2022-12-23T04:57:33.150Z,100263.03
2022-12-23T05:00:39.721Z,100263.50
2022-12-23T05:03:42.600Z,100255.97
2022-12-23T05:06:45.005Z,100260.13
2022-12-23T05:09:47.420Z,100277.63
2022-12-23T05:12:49.835Z,100265.94
2022-12-23T05:15:53.597Z,100278.19
2022-12-23T05:18:56.121Z,100274.28
2022-12-23T05:21:58.691Z,100260.19
2022-12-23T05:25:01.182Z,100282.34
2022-12-23T05:28:04.475Z,100280.25
2022-12-23T05:31:08.451Z,100269.56
2022-12-23T05:34:10.967Z,100274.16
2022-12-23T05:37:13.445Z,100280.44
2022-12-23T05:40:24.726Z,100259.81
2022-12-23T05:43:31.945Z,100267.34
2022-12-23T05:46:34.569Z,100261.38
2022-12-23T05:49:37.181Z,100253.66
2022-12-23T05:52:39.760Z,100265.13
2022-12-23T05:55:42.205Z,100251.28
2022-12-23T05:58:44.682Z,100260.44
2022-12-23T06:01:47.304Z,100245.50
2022-12-23T06:04:49.905Z,100260.91
2022-12-23T06:07:52.419Z,100263.53
2022-12-23T06:10:55.566Z,100270.81
2022-12-23T06:13:58.033Z,100262.72
2022-12-23T06:17:00.586Z,100265.59
2022-12-23T06:20:03.627Z,100271.38
2022-12-23T06:23:07.167Z,100280.44
2022-12-23T06:26:09.648Z,100278.59
2022-12-23T06:29:12.162Z,100280.47
2022-12-23T06:32:14.891Z,100283.81
2022-12-23T06:35:17.390Z,100285.41
2022-12-23T06:38:19.913Z,100295.69
2022-12-23T06:41:22.361Z,100299.78
2022-12-23T06:44:24.883Z,100311.84
2022-12-23T06:47:27.362Z,100299.34
2022-12-23T06:50:29.753Z,100315.19
2022-12-23T06:53:32.345Z,100297.16
2022-12-23T06:56:34.827Z,100305.72
2022-12-23T06:59:37.283Z,100313.00
2022-12-23T07:02:40.300Z,100310.78
2022-12-23T07:05:42.964Z,100326.72
2022-12-23T07:08:45.427Z,100315.97
2022-12-23T07:11:47.952Z,100328.16
2022-12-23T07:14:50.729Z,100313.28
2022-12-23T07:17:54.747Z,100327.06
2022-12-23T07:20:59.735Z,100323.63
2022-12-23T07:24:02.365Z,100315.81
2022-12-23T07:27:05.313Z,100308.19
2022-12-23T07:30:08.622Z,100308.66
2022-12-23T07:33:11.078Z,100326.13
2022-12-23T07:36:13.525Z,100329.28
2022-12-23T07:39:16.029Z,100296.84
2022-12-23T07:42:44.201Z,100356.06
2022-12-23T07:45:40.929Z,100333.47
2022-12-23T07:48:43.539Z,100367.94
2022-12-23T07:51:46.025Z,100342.06
2022-12-23T07:54:48.514Z,100361.59
2022-12-23T07:57:51.797Z,100353.41
2022-12-23T08:01:02.365Z,100342.03
2022-12-23T08:04:05.067Z,100367.38
2022-12-23T08:07:07.444Z,100370.00
2022-12-23T08:10:10.307Z,100350.41
2022-12-23T08:13:13.310Z,100361.34
2022-12-23T08:16:15.805Z,100356.66
2022-12-23T08:19:18.558Z,100360.81
2022-12-23T08:22:21.148Z,100321.91
2022-12-23T08:25:23.653Z,100307.78
2022-12-23T08:28:26.349Z,100333.53
2022-12-23T08:31:33.811Z,100312.97
2022-12-23T08:34:37.093Z,100338.50
2022-12-23T08:37:39.588Z,100311.34
2022-12-23T08:40:42.771Z,100317.47
2022-12-23T08:43:45.708Z,100322.66
2022-12-23T08:46:48.473Z,100286.94
2022-12-23T08:49:52.462Z,100290.41
2022-12-23T08:52:54.983Z,100326.00
2022-12-23T08:56:02.587Z,100334.94
2022-12-23T08:59:05.224Z,100319.34
2022-12-23T09:02:10.124Z,100315.22
2022-12-23T09:05:12.774Z,100309.19
2022-12-23T09:08:15.216Z,100280.59
2022-12-23T09:11:20.789Z,100302.97
2022-12-23T09:14:23.251Z,100298.06
2022-12-23T09:17:25.685Z,100288.88
2022-12-23T09:20:29.115Z,100319.66
2022-12-23T09:23:32.006Z,100305.03
2022-12-23T09:26:34.613Z,100302.66
2022-12-23T09:29:37.026Z,100307.31
2022-12-23T09:32:39.525Z,100290.72
2022-12-23T09:35:41.981Z,100279.78
2022-12-23T09:38:44.884Z,100305.69
2022-12-23T09:42:01.644Z,100307.72
2022-12-23T09:45:36.960Z,100306.00
2022-12-23T09:48:59.990Z,100283.19
2022-12-23T09:52:04.758Z,100307.28
2022-12-23T09:55:09.728Z,100286.50
2022-12-23T09:58:40.974Z,100301.53
2022-12-23T10:02:04.092Z,100288.34
2022-12-23T10:05:09.491Z,100298.44
2022-12-23T10:08:27.123Z,100293.78
2022-12-23T10:11:37.977Z,100284.41
2022-12-23T10:14:40.969Z,100282.72
2022-12-23T10:17:43.701Z,100277.66
2022-12-23T10:21:22.202Z,100282.41
2022-12-23T10:24:26.820Z,100269.31
2022-12-23T10:27:38.743Z,100239.06
2022-12-23T10:31:16.865Z,100232.16
2022-12-23T10:34:25.279Z,100237.13
2022-12-23T10:37:49.176Z,100241.31
2022-12-23T10:41:10.055Z,100234.28
2022-12-23T10:44:26.284Z,100223.88
2022-12-23T10:47:55.355Z,100217.28
2022-12-23T10:51:04.800Z,100219.53
2022-12-23T10:54:12.865Z,100210.06
2022-12-23T10:57:17.698Z,100208.53
2022-12-23T11:00:24.316Z,100195.25
2022-12-23T11:03:31.743Z,100201.03
2022-12-23T11:06:39.223Z,100175.22
2022-12-23T11:09:47.910Z,100175.63
2022-12-23T11:12:52.742Z,100176.47
2022-12-23T11:15:55.397Z,100172.84
2022-12-23T11:19:03.951Z,100165.44
2022-12-23T11:22:06.444Z,100140.03
2022-12-23T11:25:30.568Z,100141.13
2022-12-23T11:28:34.899Z,100139.59
2022-12-23T11:31:37.750Z,100129.75
2022-12-23T11:34:45.363Z,100135.22
2022-12-23T11:37:47.797Z,100122.97
2022-12-23T11:40:50.807Z,100138.72
2022-12-23T11:44:00.355Z,100142.03
2022-12-23T11:47:23.911Z,100110.22
2022-12-23T11:50:26.696Z,100123.34
2022-12-23T11:53:29.477Z,100120.81
2022-12-23T11:56:37.025Z,100112.75
2022-12-23T11:59:41.839Z,100134.13
2022-12-23T12:02:46.338Z,100129.88
2022-12-23T12:06:09.035Z,100150.56
2022-12-23T12:09:13.060Z,100157.59
2022-12-23T12:12:19.409Z,100147.75
2022-12-23T12:15:45.233Z,100144.75
2022-12-23T12:18:53.699Z,100146.41
2022-12-23T12:22:06.476Z,100144.63
2022-12-23T12:25:22.224Z,100149.34
2022-12-23T12:28:31.664Z,100139.69
2022-12-23T12:31:38.446Z,100141.91
2022-12-23T12:35:00.496Z,100152.78
2022-12-23T12:38:11.913Z,100154.56
2022-12-23T12:41:23.512Z,100169.72
2022-12-23T12:45:08.453Z,100154.66
2022-12-23T12:48:43.320Z,100173.91
2022-12-23T12:51:55.108Z,100166.13
2022-12-23T12:55:28.737Z,100155.19
2022-12-23T12:58:31.398Z,100163.19
2022-12-23T13:01:52.836Z,100167.34
2022-12-23T13:05:12.587Z,100160.06
2022-12-23T13:08:26.480Z,100160.66
2022-12-23T13:11:33.116Z,100194.63
2022-12-23T13:14:56.467Z,100174.50
2022-12-23T13:18:13.853Z,100181.19
2022-12-23T13:21:32.677Z,100168.63
2022-12-23T13:25:13.111Z,100171.53
2022-12-23T13:28:18.266Z,100155.50
2022-12-23T13:31:33.687Z,100130.84
2022-12-23T13:34:41.866Z,100111.03
2022-12-23T13:38:41.446Z,100145.06
2022-12-23T13:41:50.064Z,100129.22
2022-12-23T13:44:53.003Z,100131.34
2022-12-23T13:48:06.389Z,100151.63
2022-12-23T13:51:20.995Z,100158.41
2022-12-23T13:54:42.012Z,100156.38
2022-12-23T13:57:55.731Z,100155.78
2022-12-23T14:01:10.648Z,100144.88
2022-12-23T14:04:33.296Z,100145.53
2022-12-23T14:07:35.855Z,100151.44
2022-12-23T14:10:39.059Z,100168.31
2022-12-23T14:13:43.244Z,100170.75
2022-12-23T14:17:03.898Z,100169.34
2022-12-23T14:20:20.190Z,100157.81
2022-12-23T14:23:44.127Z,100178.16
2022-12-23T14:27:05.071Z,100182.22
2022-12-23T14:30:35.917Z,100175.53
2022-12-23T14:33:38.406Z,100156.44
2022-12-23T14:37:28.712Z,100163.31
2022-12-23T14:40:36.836Z,100153.59
2022-12-23T14:43:45.328Z,100168.47
2022-12-23T14:46:47.734Z,100167.03
2022-12-23T14:49:50.981Z,100167.22
2022-12-23T14:53:00.239Z,100175.22
2022-12-23T14:56:14.929Z,100186.41
2022-12-23T14:59:35.866Z,100182.03
2022-12-23T15:02:41.341Z,100155.19
2022-12-23T15:05:44.229Z,100165.75
2022-12-23T15:08:47.849Z,100167.31
2022-12-23T15:11:51.888Z,100179.28
2022-12-23T15:14:58.265Z,100172.59
2022-12-23T15:18:14.165Z,100176.66
2022-12-23T15:21:16.654Z,100151.94
2022-12-23T15:24:22.679Z,100139.03
2022-12-23T15:27:27.791Z,100163.44
2022-12-23T15:30:37.164Z,100164.69
2022-12-23T15:37:02.304Z,100164.09
2022-12-23T15:40:12.516Z,100151.06
2022-12-23T15:43:23.322Z,100151.25
2022-12-23T15:46:30.163Z,100168.16
2022-12-23T15:49:33.210Z,100174.41
2022-12-23T15:52:35.750Z,100175.78
2022-12-23T15:55:40.343Z,100169.31
2022-12-23T15:58:42.818Z,100168.06
2022-12-23T16:01:45.460Z,100138.81
2022-12-23T16:04:55.079Z,100152.00
2022-12-23T16:08:23.045Z,100161.78
2022-12-23T16:12:00.542Z,100169.16
2022-12-23T16:15:19.258Z,100154.00
2022-12-23T16:18:31.700Z,100157.94
2022-12-23T16:21:36.001Z,100171.72
2022-12-23T16:24:53.919Z,100170.34
2022-12-23T16:28:03.192Z,100180.09
2022-12-23T16:31:08.180Z,100178.63
2022-12-23T16:34:12.077Z,100156.84
2022-12-23T16:37:14.485Z,100151.75
2022-12-23T16:40:17.478Z,100147.88
2022-12-23T16:43:21.516Z,100162.28
2022-12-23T16:46:24.388Z,100159.66
2022-12-23T16:49:33.208Z,100162.38
2022-12-23T16:52:36.445Z,100158.78
2022-12-23T16:55:44.391Z,100147.75
2022-12-23T16:58:50.791Z,100124.16
2022-12-23T17:01:55.535Z,100132.22
2022-12-23T17:05:02.352Z,100146.72
2022-12-23T17:08:04.917Z,100154.22
2022-12-23T17:11:39.790Z,100157.81
2022-12-23T17:14:42.321Z,100154.00
2022-12-23T17:17:45.137Z,100142.34
2022-12-23T17:20:49.298Z,100149.50
2022-12-23T17:23:56.827Z,100142.41
2022-12-23T17:26:59.382Z,100145.44
2022-12-23T17:30:01.874Z,100132.94
2022-12-23T17:33:05.638Z,100145.09
2022-12-23T17:36:09.550Z,100146.47
2022-12-23T17:39:12.342Z,100154.56
2022-12-23T17:42:26.042Z,100141.50
2022-12-23T17:45:30.735Z,100108.16
2022-12-23T17:48:33.220Z,100119.34
2022-12-23T17:51:36.111Z,100133.31
2022-12-23T17:54:39.697Z,100130.50
2022-12-23T17:57:42.186Z,100134.50
2022-12-23T18:00:47.659Z,100129.66
2022-12-23T18:03:51.029Z,100130.91
2022-12-23T18:06:53.521Z,100122.66
2022-12-23T18:09:55.979Z,100115.97
2022-12-23T18:13:01.495Z,100120.72
2022-12-23T18:16:04.089Z,100125.97
2022-12-23T18:19:14.016Z,100111.94
2022-12-23T18:22:20.815Z,100120.81
2022-12-23T18:25:25.441Z,100122.19
2022-12-23T18:28:31.161Z,100098.88
2022-12-23T18:31:33.701Z,100106.41
2022-12-23T18:34:36.160Z,100098.34
2022-12-23T18:37:38.663Z,100121.38
2022-12-23T18:40:41.986Z,100125.25
2022-12-23T18:43:44.946Z,100127.94
2022-12-23T18:46:48.425Z,100135.53
2022-12-23T18:49:50.934Z,100132.91
2022-12-23T18:52:54.105Z,100142.88
2022-12-23T18:55:56.564Z,100136.38
2022-12-23T18:58:59.018Z,100154.84
2022-12-23T19:02:01.724Z,100150.66
2022-12-23T19:05:04.594Z,100140.38
2022-12-23T19:08:07.263Z,100145.03
2022-12-23T19:11:18.410Z,100136.59
2022-12-23T19:14:21.254Z,100155.25
2022-12-23T19:17:23.675Z,100150.28
2022-12-23T19:20:28.457Z,100140.97
2022-12-23T19:23:31.393Z,100151.94
2022-12-23T19:26:33.897Z,100149.69
2022-12-23T19:29:36.369Z,100176.06
2022-12-23T19:32:38.812Z,100159.75
2022-12-23T19:35:42.179Z,100169.69
2022-12-23T19:38:45.026Z,100175.13
2022-12-23T19:41:48.050Z,100183.66
2022-12-23T19:44:50.489Z,100181.81
2022-12-23T19:47:53.570Z,100166.53
2022-12-23T19:51:00.814Z,100165.09
2022-12-23T19:54:03.401Z,100160.63
2022-12-23T19:57:05.863Z,100174.44
2022-12-23T20:00:09.545Z,100180.28
2022-12-23T20:03:14.990Z,100176.09
2022-12-23T20:06:19.344Z,100185.81
2022-12-23T20:09:21.809Z,100176.00
2022-12-23T20:12:26.417Z,100190.91
2022-12-23T20:15:28.826Z,100183.84
2022-12-23T20:18:31.360Z,100201.88
2022-12-23T20:21:35.427Z,100198.25
2022-12-23T20:24:37.961Z,100193.19
2022-12-23T20:27:40.632Z,100208.66
2022-12-23T20:30:48.213Z,100200.41
2022-12-23T20:33:52.057Z,100184.06
2022-12-23T20:36:54.505Z,100197.22
2022-12-23T20:39:57.236Z,100188.44
2022-12-23T20:42:59.748Z,100184.56
2022-12-23T20:46:04.214Z,100163.84
2022-12-23T20:49:06.741Z,100202.81
2022-12-23T20:52:09.440Z,100204.00
2022-12-23T20:55:11.961Z,100180.44
2022-12-23T20:58:33.300Z,100165.84
2022-12-23T21:01:38.675Z,100143.38
2022-12-23T21:04:41.510Z,100111.66
2022-12-23T21:07:43.987Z,100174.91
2022-12-23T21:10:53.529Z,100169.84
2022-12-23T21:13:59.841Z,100147.84
2022-12-23T21:17:05.253Z,100170.34
2022-12-23T21:20:09.199Z,100161.84
2022-12-23T21:23:13.632Z,100151.13
2022-12-23T21:26:21.241Z,100164.13
2022-12-23T21:29:23.928Z,100168.38
2022-12-23T21:32:26.524Z,100173.38
2022-12-23T21:35:29.209Z,100160.59
2022-12-23T21:38:36.864Z,100141.63
2022-12-23T21:41:41.274Z,100158.22
2022-12-23T21:44:43.777Z,100147.88
2022-12-23T21:47:46.212Z,100133.16
2022-12-23T21:50:54.064Z,100125.41
2022-12-23T21:53:58.875Z,100141.63
2022-12-23T21:57:01.388Z,100133.75
2022-12-23T22:00:04.357Z,100129.53
2022-12-23T22:03:07.063Z,100117.66
2022-12-23T22:06:17.997Z,100142.97
2022-12-23T22:09:20.554Z,100143.81
2022-12-23T22:12:23.059Z,100158.22
2022-12-23T22:15:25.574Z,100149.03
2022-12-23T22:18:28.051Z,100134.44
2022-12-23T22:21:31.971Z,100125.88
2022-12-23T22:24:34.442Z,100127.22
2022-12-23T22:27:36.923Z,100145.88
2022-12-23T22:30:39.468Z,100110.31
2022-12-23T22:33:42.088Z,100096.09
2022-12-23T22:36:45.059Z,100103.88
2022-12-23T22:39:47.799Z,100106.22
2022-12-23T22:42:50.216Z,100120.81
2022-12-23T22:45:57.504Z,100109.53
2022-12-23T22:49:00.230Z,100100.41
2022-12-23T22:52:02.790Z,100114.47
2022-12-23T22:55:06.301Z,100137.31
2022-12-23T22:58:08.824Z,100133.50
2022-12-23T23:01:22.777Z,100122.81
2022-12-23T23:04:25.368Z,100132.44
2022-12-23T23:07:27.841Z,100120.44
2022-12-23T23:10:33.288Z,100136.44
2022-12-23T23:13:35.891Z,100119.78
2022-12-23T23:16:38.946Z,100103.09
2022-12-23T23:19:41.567Z,100103.47
2022-12-23T23:22:44.625Z,100129.72
2022-12-23T23:25:47.547Z,100115.53
2022-12-23T23:28:50.007Z,100112.69
2022-12-23T23:31:52.508Z,100104.34
2022-12-23T23:34:55.067Z,100088.59
2022-12-23T23:37:57.533Z,100084.44
2022-12-23T23:41:00.255Z,100089.44
2022-12-23T23:44:02.894Z,100081.09
2022-12-23T23:47:05.354Z,100074.19
2022-12-23T23:50:08.373Z,100091.59
2022-12-23T23:53:12.097Z,100070.59
2022-12-23T23:56:15.797Z,100079.84
2022-12-23T23:59:20.603Z,100059.69
